^^
Station Historical Data
 
Daily Summary for March 30, 2015 Units:  English    Metric   Both
« Previous Day
Next Day »
Daily Weekly Monthly Yearly Custom
  Current: High: Low: Average:
Temperature: 63.7 °F 63.7 °F 34.4 °F 45.2 °F
Dew Point: 34.0 °F 35.4 °F 29.2 °F 32.1 °F
Humidity: 33% 82% 33% 63%
Wind Speed: 7.0mph 13.0mph 1.0mph 4.5mph
Wind Gust: 17.0mph 20.0mph - -
WindWNW - - West
Pressure: 29.98 in 30.09 in 29.97 in -
Precipitation: 0.00 in      
Historical Graphs
 
 
Tabular Data for March 30, 2015
Time Temperature Dew Point Pressure Wind Wind Speed Wind Gust Humidity Rainfall Rate (Hourly)
00:09 41.4 °F 33.7 °F 29.97 in West 5.0 mph 7.0 mph 74% 0.00 in
00:19 41.2 °F 33.5 °F 29.97 in West 3.0 mph 8.0 mph 74% 0.00 in
00:29 41.2 °F 33.2 °F 29.97 in West 5.0 mph 8.0 mph 73% 0.00 in
00:39 41.5 °F 33.1 °F 29.97 in West 6.0 mph 10.0 mph 72% 0.00 in
00:49 41.8 °F 33.1 °F 29.98 in West 6.0 mph 9.0 mph 71% 0.00 in
00:59 42.0 °F 32.9 °F 29.98 in West 3.0 mph 10.0 mph 70% 0.00 in
01:09 41.8 °F 32.7 °F 29.98 in West 5.0 mph 9.0 mph 70% 0.00 in
01:19 41.6 °F 32.5 °F 29.98 in West 5.0 mph 9.0 mph 70% 0.00 in
01:29 41.9 °F 32.5 °F 29.99 in WNW 7.0 mph 12.0 mph 69% 0.00 in
01:39 42.2 °F 32.4 °F 29.99 in WNW 6.0 mph 12.0 mph 68% 0.00 in
01:49 42.2 °F 32.0 °F 29.99 in WNW 5.0 mph 10.0 mph 67% 0.00 in
01:59 42.0 °F 32.2 °F 29.99 in West 5.0 mph 12.0 mph 68% 0.00 in
02:09 41.6 °F 31.9 °F 29.99 in WNW 5.0 mph 9.0 mph 68% 0.00 in
02:19 41.5 °F 31.7 °F 29.99 in West 5.0 mph 9.0 mph 68% 0.00 in
02:29 41.0 °F 31.6 °F 29.99 in West 3.0 mph 7.0 mph 69% 0.00 in
02:39 40.5 °F 31.5 °F 29.99 in West 3.0 mph 7.0 mph 70% 0.00 in
02:49 40.0 °F 31.4 °F 30.00 in West 2.0 mph 6.0 mph 71% 0.00 in
02:59 39.6 °F 31.3 °F 30.00 in West 5.0 mph 7.0 mph 72% 0.00 in
03:09 39.3 °F 31.0 °F 30.00 in West 3.0 mph 7.0 mph 72% 0.00 in
03:19 38.9 °F 31.0 °F 30.00 in West 3.0 mph 7.0 mph 73% 0.00 in
03:29 38.5 °F 30.6 °F 30.00 in West 2.0 mph 6.0 mph 73% 0.00 in
03:39 38.1 °F 30.5 °F 30.00 in West 2.0 mph 6.0 mph 74% 0.00 in
03:49 37.9 °F 30.4 °F 30.00 in West 2.0 mph 6.0 mph 74% 0.00 in
03:59 37.5 °F 30.3 °F 30.00 in WSW 1.0 mph 3.0 mph 75% 0.00 in
04:09 37.2 °F 30.3 °F 30.00 in West 2.0 mph 4.0 mph 76% 0.00 in
04:19 37.0 °F 30.1 °F 30.00 in West 2.0 mph 4.0 mph 76% 0.00 in
04:29 36.8 °F 29.9 °F 30.00 in West 1.0 mph 4.0 mph 76% 0.00 in
04:39 36.4 °F 29.9 °F 30.01 in West 2.0 mph 4.0 mph 77% 0.00 in
04:49 36.2 °F 29.7 °F 30.01 in West 2.0 mph 3.0 mph 77% 0.00 in
04:59 36.2 °F 29.7 °F 30.01 in West 2.0 mph 6.0 mph 77% 0.00 in
05:09 36.1 °F 29.6 °F 30.02 in West 2.0 mph 4.0 mph 77% 0.00 in
05:19 35.8 °F 29.6 °F 30.02 in WSW 2.0 mph 3.0 mph 78% 0.00 in
05:29 35.6 °F 29.7 °F 30.02 in WSW 2.0 mph 3.0 mph 79% 0.00 in
05:39 35.4 °F 29.5 °F 30.02 in WSW 2.0 mph 3.0 mph 79% 0.00 in
05:49 35.2 °F 29.3 °F 30.03 in West 2.0 mph 4.0 mph 79% 0.00 in
05:59 35.2 °F 29.3 °F 30.03 in West 2.0 mph 4.0 mph 79% 0.00 in
06:09 35.1 °F 29.2 °F 30.04 in West 1.0 mph 4.0 mph 79% 0.00 in
06:19 34.9 °F 29.4 °F 30.05 in WSW 1.0 mph 3.0 mph 80% 0.00 in
06:29 34.7 °F 29.5 °F 30.05 in WSW 2.0 mph 3.0 mph 81% 0.00 in
06:39 34.5 °F 29.3 °F 30.05 in West 2.0 mph 3.0 mph 81% 0.00 in
06:49 34.4 °F 29.2 °F 30.06 in WSW 1.0 mph 3.0 mph 81% 0.00 in
06:59 34.4 °F 29.5 °F 30.06 in WSW 2.0 mph 4.0 mph 82% 0.00 in
07:09 34.5 °F 29.6 °F 30.06 in West 3.0 mph 6.0 mph 82% 0.00 in
07:19 34.9 °F 30.0 °F 30.06 in West 2.0 mph 6.0 mph 82% 0.00 in
07:29 35.6 °F 30.3 °F 30.07 in West 3.0 mph 6.0 mph 81% 0.00 in
07:39 36.2 °F 30.6 °F 30.07 in West 3.0 mph 7.0 mph 80% 0.00 in
07:49 36.9 °F 31.0 °F 30.07 in West 3.0 mph 8.0 mph 79% 0.00 in
07:59 37.7 °F 31.4 °F 30.07 in West 6.0 mph 8.0 mph 78% 0.00 in
08:09 38.4 °F 31.8 °F 30.08 in West 3.0 mph 7.0 mph 77% 0.00 in
08:19 39.2 °F 31.9 °F 30.08 in West 3.0 mph 8.0 mph 75% 0.00 in
08:29 40.1 °F 32.5 °F 30.08 in West 3.0 mph 7.0 mph 74% 0.00 in
08:39 41.2 °F 32.9 °F 30.08 in West 3.0 mph 7.0 mph 72% 0.00 in
08:49 42.5 °F 33.0 °F 30.08 in West 5.0 mph 9.0 mph 69% 0.00 in
08:59 43.8 °F 33.9 °F 30.08 in West 3.0 mph 7.0 mph 68% 0.00 in
09:09 45.0 °F 33.9 °F 30.09 in West 3.0 mph 7.0 mph 65% 0.00 in
09:19 46.0 °F 34.5 °F 30.09 in West 3.0 mph 8.0 mph 64% 0.00 in
09:29 47.1 °F 34.3 °F 30.09 in West 3.0 mph 8.0 mph 61% 0.00 in
09:39 48.0 °F 34.3 °F 30.09 in West 5.0 mph 8.0 mph 59% 0.00 in
09:49 48.9 °F 34.8 °F 30.09 in West 5.0 mph 9.0 mph 58% 0.00 in
09:59 49.6 °F 35.4 °F 30.09 in SW 3.0 mph 7.0 mph 58% 0.00 in
10:09 50.2 °F 35.1 °F 30.09 in WSW 5.0 mph 8.0 mph 56% 0.00 in
10:19 50.7 °F 35.1 °F 30.09 in West 7.0 mph 10.0 mph 55% 0.00 in
10:29 51.3 °F 34.8 °F 30.09 in WSW 5.0 mph 9.0 mph 53% 0.00 in
10:39 52.3 °F 34.7 °F 30.09 in West 9.0 mph 13.0 mph 51% 0.00 in
10:49 52.9 °F 35.2 °F 30.09 in West 5.0 mph 12.0 mph 51% 0.00 in
10:59 53.9 °F 34.1 °F 30.08 in West 8.0 mph 12.0 mph 47% 0.00 in
11:09 54.4 °F 34.5 °F 30.08 in West 7.0 mph 13.0 mph 47% 0.00 in
11:19 54.4 °F 33.5 °F 30.08 in West 5.0 mph 12.0 mph 45% 0.00 in
11:29 55.2 °F 33.0 °F 30.07 in West 6.0 mph 12.0 mph 43% 0.00 in
11:39 55.6 °F 34.6 °F 30.07 in West 7.0 mph 12.0 mph 45% 0.00 in
11:49 56.2 °F 34.0 °F 30.07 in West 7.0 mph 12.0 mph 43% 0.00 in
11:59 56.2 °F 34.0 °F 30.06 in WSW 7.0 mph 14.0 mph 43% 0.00 in
12:09 56.8 °F 33.3 °F 30.06 in West 5.0 mph 14.0 mph 41% 0.00 in
12:19 56.9 °F 32.8 °F 30.05 in WNW 10.0 mph 15.0 mph 40% 0.00 in
12:29 57.2 °F 31.8 °F 30.05 in West 7.0 mph 13.0 mph 38% 0.00 in
12:39 57.9 °F 32.4 °F 30.05 in West 10.0 mph 13.0 mph 38% 0.00 in
12:49 57.9 °F 33.1 °F 30.04 in West 5.0 mph 14.0 mph 39% 0.00 in
12:59 58.9 °F 33.3 °F 30.04 in West 7.0 mph 14.0 mph 38% 0.00 in
13:09 59.0 °F 32.8 °F 30.03 in WSW 8.0 mph 18.0 mph 37% 0.00 in
13:19 59.5 °F 32.5 °F 30.02 in West 8.0 mph 12.0 mph 36% 0.00 in
13:29 60.2 °F 32.4 °F 30.02 in WSW 7.0 mph 13.0 mph 35% 0.00 in
13:39 60.4 °F 31.9 °F 30.01 in WSW 7.0 mph 16.0 mph 34% 0.00 in
13:49 60.9 °F 32.3 °F 30.01 in West 7.0 mph 15.0 mph 34% 0.00 in
13:59 61.7 °F 33.0 °F 30.01 in West 9.0 mph 18.0 mph 34% 0.00 in
14:09 61.6 °F 33.7 °F 30.00 in West 8.0 mph 18.0 mph 35% 0.00 in
14:19 62.0 °F 32.5 °F 30.00 in West 13.0 mph 20.0 mph 33% 0.00 in
14:29 61.8 °F 32.4 °F 30.00 in West 8.0 mph 20.0 mph 33% 0.00 in
14:39 62.7 °F 33.2 °F 29.99 in West 7.0 mph 13.0 mph 33% 0.00 in
14:49 63.7 °F 34.0 °F 29.98 in WNW 7.0 mph 17.0 mph 33% 0.00 in
jolietwx - Weather
Compliments of Weather Underground